This is the latest recevied weather packets stored in our database for station/object M0SDM. If no packets are shown the sender has not sent any weather packets the latest 10 day(s).
| Time | Temp. | Humidity | Pressure | Rain* | Wind** | Luminosity | Snow |
|---|---|---|---|---|---|---|---|
| 1778141421 | 10.56° C | 77% | 1016.7 hPa | 0 mm | - | - | - |
| 1778140521 | 10.56° C | 78% | 1016.5 hPa | 0 mm | - | - | - |
| 1778139621 | 9.44° C | 82% | 1016.8 hPa | 0 mm | - | - | - |
| 1778138721 | 9.44° C | 83% | 1016.8 hPa | 0 mm | - | - | - |
| 1778137821 | 8.89° C | 85% | 1016.5 hPa | 0 mm | - | - | - |
| 1778136921 | 8.89° C | 87% | 1016.6 hPa | 0 mm | - | - | - |
| 1778136021 | 7.22° C | 96% | 1016.6 hPa | 0 mm | - | - | - |
| 1778135121 | 5.56° C | 96% | 1016.6 hPa | 0 mm | - | - | - |
| 1778134221 | 4.44° C | 96% | 1016.5 hPa | 0 mm | - | - | - |
| 1778133321 | 4.44° C | 96% | 1016.5 hPa | 0 mm | - | - | - |
| 1778132421 | 3.89° C | 96% | 1016.3 hPa | 0 mm | - | - | - |
| 1778131521 | 3.89° C | 95% | 1016.4 hPa | 0 mm | - | - | - |
| 1778130621 | 3.33° C | 95% | 1016.4 hPa | 0 mm | - | - | - |
| 1778129721 | 3.33° C | 95% | 1016.2 hPa | 0 mm | - | - | - |
| 1778128821 | 3.33° C | 96% | 1016.1 hPa | 0 mm | - | - | - |
| 1778127921 | 3.33° C | 96% | 1016 hPa | 0 mm | - | - | - |
| 1778127021 | 3.33° C | 96% | 1016.1 hPa | 0 mm | - | - | - |
| 1778126121 | 3.33° C | 95% | 1016.1 hPa | 0 mm | - | - | - |
| 1778125221 | 3.33° C | 95% | 1016.2 hPa | 0 mm | - | - | - |
| 1778124321 | 3.89° C | 95% | 1016 hPa | 0 mm | - | - | - |
| 1778123421 | 4.44° C | 95% | 1016 hPa | 0 mm | - | - | - |
| 1778122521 | 4.44° C | 95% | 1015.9 hPa | 0 mm | - | - | - |
| 1778121621 | 5° C | 95% | 1015.9 hPa | 0 mm | - | - | - |
| 1778120721 | 5° C | 95% | 1016.1 hPa | 0 mm | - | - | - |
| 1778119821 | 5° C | 95% | 1015.7 hPa | 0 mm | - | - | - |
* Rain latest hour (hover to see other rain measurements)
** Current wind speed in m/s (hover to see current wind gust speed)